Time;durP1;ratioP1;P1;durP2;ratioP2;P2;SDS_P1;SDS_P2;PMS_P1;PMS_P2;Temp;Humidity;BMP_temperature;BMP_pressure;BME280_temperature;BME280_humidity;BME280_pressure;Samples;Min_cycle;Max_cycle;Signal;HPM_P1;HPM_P2
2022/08/27 00:02:05;;;;;;;63.17;5.67;;;;;;;;;;5074143;28;20557;-69
2022/08/27 00:04:33;;;;;;;61.70;5.50;;;;;;;;;;5074245;28;20946;-69
2022/08/27 00:07:00;;;;;;;63.40;5.80;;;;;;;;;;5074690;28;20497;-69
2022/08/27 00:09:28;;;;;;;62.00;6.37;;;;;;;;;;5074335;28;20448;-68
2022/08/27 00:11:56;;;;;;;60.90;5.67;;;;;;;;;;5074061;28;20470;-69
2022/08/27 00:14:23;;;;;;;64.87;6.67;;;;;;;;;;5074665;28;20455;-69
2022/08/27 00:16:51;;;;;;;62.00;6.07;;;;;;;;;;5074649;28;20452;-68
2022/08/27 00:19:20;;;;;;;61.93;6.07;;;;;;;;;;5073915;28;20597;-69
2022/08/27 00:21:47;;;;;;;62.80;5.87;;;;;;;;;;5074258;28;20783;-69
2022/08/27 00:24:14;;;;;;;60.77;5.43;;;;;;;;;;5074501;28;20451;-69
2022/08/27 00:26:41;;;;;;;64.03;6.30;;;;;;;;;;5074170;28;20963;-69
2022/08/27 00:29:09;;;;;;;62.90;6.20;;;;;;;;;;5073801;28;20444;-68
2022/08/27 00:31:36;;;;;;;64.50;5.60;;;;;;;;;;5073693;28;20538;-69
2022/08/27 00:34:04;;;;;;;60.53;4.30;;;;;;;;;;5073839;28;20450;-69
2022/08/27 00:36:32;;;;;;;63.50;5.57;;;;;;;;;;5073248;28;20454;-69
2022/08/27 00:38:59;;;;;;;60.77;5.43;;;;;;;;;;5072014;28;20487;-69
2022/08/27 00:41:26;;;;;;;63.70;5.63;;;;;;;;;;5073405;28;20458;-69
2022/08/27 00:43:56;;;;;;;63.57;6.47;;;;;;;;;;5073112;28;20954;-69
2022/08/27 00:46:24;;;;;;;62.67;7.00;;;;;;;;;;5073124;28;20887;-69
2022/08/27 00:48:52;;;;;;;60.90;5.30;;;;;;;;;;5072666;28;20447;-69
2022/08/27 00:51:20;;;;;;;64.30;6.50;;;;;;;;;;5073031;28;20454;-69
2022/08/27 00:53:49;;;;;;;60.90;6.43;;;;;;;;;;5072927;28;20467;-69
2022/08/27 00:56:19;;;;;;;63.47;6.00;;;;;;;;;;5073055;28;20448;-69
2022/08/27 00:58:47;;;;;;;62.37;5.57;;;;;;;;;;5072231;28;20454;-69
2022/08/27 01:01:16;;;;;;;64.23;7.03;;;;;;;;;;5072929;28;20834;-69
2022/08/27 01:03:46;;;;;;;61.30;5.20;;;;;;;;;;5071083;28;20471;-69
2022/08/27 01:06:14;;;;;;;65.13;7.30;;;;;;;;;;5072741;28;20443;-69
2022/08/27 01:08:42;;;;;;;60.83;5.40;;;;;;;;;;5072268;28;20940;-69
2022/08/27 01:11:11;;;;;;;66.70;5.83;;;;;;;;;;5072549;28;20450;-69
2022/08/27 01:13:39;;;;;;;61.17;5.33;;;;;;;;;;5072312;28;20467;-69
2022/08/27 01:16:07;;;;;;;62.30;5.43;;;;;;;;;;5072862;28;20538;-69
2022/08/27 01:18:36;;;;;;;61.40;5.70;;;;;;;;;;5072215;28;20453;-69
2022/08/27 01:21:06;;;;;;;62.77;7.47;;;;;;;;;;5072272;28;21017;-69
2022/08/27 01:23:37;;;;;;;60.77;5.90;;;;;;;;;;5072205;28;20554;-69
2022/08/27 01:26:06;;;;;;;61.30;5.43;;;;;;;;;;5072182;28;20454;-68
2022/08/27 01:28:35;;;;;;;62.50;7.00;;;;;;;;;;5072206;28;20448;-69
2022/08/27 01:31:02;;;;;;;63.67;7.90;;;;;;;;;;5072170;28;20523;-69
2022/08/27 01:33:30;;;;;;;65.33;6.60;;;;;;;;;;5072048;28;20482;-69
2022/08/27 01:35:57;;;;;;;62.77;7.30;;;;;;;;;;5072199;28;20472;-69
2022/08/27 01:38:26;;;;;;;64.53;6.73;;;;;;;;;;5072410;28;20546;-70
2022/08/27 01:40:53;;;;;;;62.30;6.27;;;;;;;;;;5071996;28;20491;-69
2022/08/27 01:43:22;;;;;;;63.80;6.70;;;;;;;;;;5072141;28;20481;-68
2022/08/27 01:45:50;;;;;;;61.90;5.90;;;;;;;;;;5072102;28;20454;-69
2022/08/27 01:48:18;;;;;;;65.63;7.10;;;;;;;;;;5072044;28;20550;-69
2022/08/27 01:50:47;;;;;;;64.20;6.40;;;;;;;;;;5070846;28;20815;-69
2022/08/27 01:53:15;;;;;;;65.50;7.93;;;;;;;;;;5071939;28;20475;-69
2022/08/27 01:55:43;;;;;;;67.20;8.97;;;;;;;;;;5072047;28;20447;-69
2022/08/27 01:58:11;;;;;;;64.37;7.13;;;;;;;;;;5071931;28;20455;-69
2022/08/27 02:00:42;;;;;;;67.07;9.47;;;;;;;;;;5071541;28;20483;-70
2022/08/27 02:03:10;;;;;;;66.37;8.23;;;;;;;;;;5071787;28;20837;-69
2022/08/27 02:05:37;;;;;;;68.00;9.00;;;;;;;;;;5071633;28;20451;-69
2022/08/27 02:08:05;;;;;;;70.00;9.63;;;;;;;;;;5072213;28;20447;-69
2022/08/27 02:10:33;;;;;;;71.93;12.40;;;;;;;;;;5071632;28;20446;-69
2022/08/27 02:13:01;;;;;;;70.37;9.07;;;;;;;;;;5071578;28;20471;-69
2022/08/27 02:15:28;;;;;;;67.10;9.37;;;;;;;;;;5071755;28;20482;-69
2022/08/27 02:17:56;;;;;;;65.13;10.07;;;;;;;;;;5071478;28;20454;-68
2022/08/27 02:20:24;;;;;;;66.37;8.63;;;;;;;;;;5071183;28;20482;-69
2022/08/27 02:22:51;;;;;;;64.70;8.63;;;;;;;;;;5071680;28;20467;-69
2022/08/27 02:25:19;;;;;;;65.77;8.80;;;;;;;;;;5072007;28;20870;-69
2022/08/27 02:27:46;;;;;;;72.27;12.70;;;;;;;;;;5071591;28;20450;-70
2022/08/27 02:30:16;;;;;;;73.43;11.83;;;;;;;;;;5071437;28;20439;-69
2022/08/27 02:32:46;;;;;;;69.53;10.53;;;;;;;;;;5071229;28;20995;-70
2022/08/27 02:35:15;;;;;;;70.37;11.43;;;;;;;;;;5071587;28;20442;-70
2022/08/27 02:37:43;;;;;;;73.37;12.00;;;;;;;;;;5071725;28;20451;-69
2022/08/27 02:40:11;;;;;;;68.37;11.23;;;;;;;;;;5071116;28;20483;-69
2022/08/27 02:42:38;;;;;;;67.87;10.10;;;;;;;;;;5071389;28;20463;-69
2022/08/27 02:45:06;;;;;;;68.10;8.80;;;;;;;;;;5071237;28;20448;-70
2022/08/27 02:47:34;;;;;;;78.70;12.20;;;;;;;;;;5071324;28;20443;-70
2022/08/27 02:50:01;;;;;;;68.70;11.10;;;;;;;;;;5071202;28;20883;-70
2022/08/27 02:52:30;;;;;;;69.10;10.90;;;;;;;;;;5071369;28;20469;-69
2022/08/27 02:54:57;;;;;;;73.63;11.47;;;;;;;;;;5071366;28;20458;-70
2022/08/27 02:57:25;;;;;;;74.07;12.60;;;;;;;;;;5071212;28;20451;-70
2022/08/27 02:59:53;;;;;;;69.47;11.33;;;;;;;;;;5070967;28;20514;-71
2022/08/27 03:02:20;;;;;;;67.90;11.03;;;;;;;;;;5074209;28;20463;-70
2022/08/27 03:04:48;;;;;;;67.27;10.20;;;;;;;;;;5075055;28;20478;-70
2022/08/27 03:07:15;;;;;;;68.20;10.80;;;;;;;;;;5075055;28;20447;-70
2022/08/27 03:09:44;;;;;;;68.30;10.60;;;;;;;;;;5074868;28;20448;-69
2022/08/27 03:12:11;;;;;;;68.20;10.63;;;;;;;;;;5074885;28;20507;-70
2022/08/27 03:14:39;;;;;;;72.47;13.03;;;;;;;;;;5074628;28;20447;-72
2022/08/27 03:19:49;;;;;;;71.70;11.57;;;;;;;;;;5073993;28;20485;-70
2022/08/27 03:22:16;;;;;;;73.20;12.27;;;;;;;;;;5074447;28;20483;-69
2022/08/27 03:24:45;;;;;;;69.10;12.77;;;;;;;;;;5074695;28;20449;-70
2022/08/27 03:27:12;;;;;;;71.13;11.77;;;;;;;;;;5074496;28;20477;-70
2022/08/27 03:29:40;;;;;;;70.03;10.50;;;;;;;;;;5074312;28;20450;-70
2022/08/27 03:32:07;;;;;;;71.70;10.87;;;;;;;;;;5074481;28;20482;-69
2022/08/27 03:34:34;;;;;;;72.57;11.37;;;;;;;;;;5074493;28;20522;-70
2022/08/27 03:37:01;;;;;;;67.93;10.63;;;;;;;;;;5074469;28;20444;-69
2022/08/27 03:39:28;;;;;;;70.77;12.90;;;;;;;;;;5074501;28;20534;-70
2022/08/27 03:41:57;;;;;;;68.70;10.37;;;;;;;;;;5074330;28;20527;-69
2022/08/27 03:44:24;;;;;;;67.87;10.70;;;;;;;;;;5074408;28;20469;-70
2022/08/27 03:46:52;;;;;;;68.80;10.43;;;;;;;;;;5074306;28;20485;-70
2022/08/27 03:49:19;;;;;;;72.70;11.00;;;;;;;;;;5073875;28;20443;-70
2022/08/27 03:51:46;;;;;;;71.53;9.73;;;;;;;;;;5073958;28;20447;-70
2022/08/27 03:54:13;;;;;;;70.50;10.70;;;;;;;;;;5073994;28;20453;-70
2022/08/27 03:56:40;;;;;;;67.17;9.13;;;;;;;;;;5074166;28;20454;-70
2022/08/27 03:59:09;;;;;;;68.63;9.90;;;;;;;;;;5073747;28;20447;-70
2022/08/27 04:01:36;;;;;;;71.30;10.13;;;;;;;;;;5073898;28;20487;-70
2022/08/27 04:04:03;;;;;;;70.13;9.00;;;;;;;;;;5074314;28;20553;-69
2022/08/27 04:06:30;;;;;;;70.73;9.27;;;;;;;;;;5074211;28;20457;-70
2022/08/27 04:08:58;;;;;;;67.97;8.87;;;;;;;;;;5073958;28;20931;-69
2022/08/27 04:11:25;;;;;;;65.70;8.97;;;;;;;;;;5074101;28;20450;-69
2022/08/27 04:13:52;;;;;;;67.30;10.20;;;;;;;;;;5072932;28;20468;-70
2022/08/27 04:16:20;;;;;;;68.13;10.77;;;;;;;;;;5073918;28;20817;-69
2022/08/27 04:18:47;;;;;;;68.90;10.23;;;;;;;;;;5073335;28;20451;-69
2022/08/27 04:21:15;;;;;;;66.97;9.70;;;;;;;;;;5073324;28;21074;-70
2022/08/27 04:23:43;;;;;;;68.27;9.80;;;;;;;;;;5073644;28;20472;-69
2022/08/27 04:26:11;;;;;;;67.47;9.07;;;;;;;;;;5073880;28;20447;-69
2022/08/27 04:28:38;;;;;;;68.17;9.97;;;;;;;;;;5073161;28;20443;-70
2022/08/27 04:31:05;;;;;;;69.57;10.20;;;;;;;;;;5073311;28;20435;-70
2022/08/27 04:33:34;;;;;;;68.67;10.20;;;;;;;;;;5072975;28;20487;-70
2022/08/27 04:36:02;;;;;;;68.30;9.07;;;;;;;;;;5073385;28;20486;-69
2022/08/27 04:38:29;;;;;;;67.67;9.30;;;;;;;;;;5073297;28;20439;-69
2022/08/27 04:43:40;;;;;;;64.70;8.33;;;;;;;;;;5065644;28;20561;-69
2022/08/27 04:46:07;;;;;;;69.37;11.33;;;;;;;;;;5072786;28;20966;-70
2022/08/27 04:48:36;;;;;;;69.40;10.70;;;;;;;;;;5072820;28;20469;-70
2022/08/27 04:51:03;;;;;;;67.33;8.80;;;;;;;;;;5073007;28;20818;-70
2022/08/27 04:53:30;;;;;;;69.13;9.97;;;;;;;;;;5072717;28;20533;-70
2022/08/27 04:55:58;;;;;;;74.07;11.17;;;;;;;;;;5072820;28;20454;-70
2022/08/27 04:58:26;;;;;;;73.43;11.47;;;;;;;;;;5072814;28;20443;-70
2022/08/27 05:00:54;;;;;;;67.00;9.77;;;;;;;;;;5072583;28;20485;-69
2022/08/27 05:03:22;;;;;;;67.97;9.17;;;;;;;;;;5072748;28;20489;-70
2022/08/27 05:05:52;;;;;;;68.83;11.00;;;;;;;;;;5072764;28;20538;-69
2022/08/27 05:08:19;;;;;;;71.50;9.70;;;;;;;;;;5072732;28;20484;-70
2022/08/27 05:10:47;;;;;;;71.07;12.53;;;;;;;;;;5072814;28;20447;-70
2022/08/27 05:13:17;;;;;;;68.07;10.77;;;;;;;;;;5072417;28;20471;-70
2022/08/27 05:15:44;;;;;;;69.20;10.87;;;;;;;;;;5072795;28;20494;-70
2022/08/27 05:18:12;;;;;;;73.83;12.67;;;;;;;;;;5072526;28;20455;-70
2022/08/27 05:20:43;;;;;;;69.10;10.17;;;;;;;;;;5072135;28;20566;-70
2022/08/27 05:23:11;;;;;;;70.90;11.50;;;;;;;;;;5072368;28;20473;-70
2022/08/27 05:25:39;;;;;;;76.07;13.40;;;;;;;;;;5072038;28;20939;-70
2022/08/27 05:28:06;;;;;;;70.80;12.27;;;;;;;;;;5072314;28;20486;-69
2022/08/27 05:30:36;;;;;;;70.17;11.57;;;;;;;;;;5072030;28;20475;-70
2022/08/27 05:33:03;;;;;;;73.63;10.73;;;;;;;;;;5072119;28;20480;-70
2022/08/27 05:35:31;;;;;;;72.87;10.37;;;;;;;;;;5072120;28;20966;-70
2022/08/27 05:37:59;;;;;;;69.97;10.70;;;;;;;;;;5071976;28;20452;-70
2022/08/27 05:40:28;;;;;;;68.77;10.10;;;;;;;;;;5071639;28;20448;-69
2022/08/27 05:42:55;;;;;;;68.93;11.03;;;;;;;;;;5072122;28;20885;-70
2022/08/27 05:45:23;;;;;;;68.87;10.60;;;;;;;;;;5072116;28;20455;-70
2022/08/27 05:47:50;;;;;;;72.03;11.87;;;;;;;;;;5072038;28;20533;-71
2022/08/27 05:50:17;;;;;;;70.70;11.60;;;;;;;;;;5071615;28;20455;-70
2022/08/27 05:52:44;;;;;;;69.40;11.50;;;;;;;;;;5071742;28;20469;-70
2022/08/27 05:55:12;;;;;;;67.33;10.30;;;;;;;;;;5071878;28;20954;-70
2022/08/27 05:57:40;;;;;;;72.17;13.57;;;;;;;;;;5072077;28;20452;-69
2022/08/27 06:02:53;;;;;;;70.37;11.97;;;;;;;;;;5071781;28;20523;-69
2022/08/27 06:05:20;;;;;;;71.00;11.90;;;;;;;;;;5071626;28;20554;-69
2022/08/27 06:07:47;;;;;;;73.70;11.70;;;;;;;;;;5071718;28;20947;-69
2022/08/27 06:10:14;;;;;;;71.00;13.13;;;;;;;;;;5071695;28;20450;-70
2022/08/27 06:12:43;;;;;;;69.00;11.40;;;;;;;;;;5071648;28;20466;-69
2022/08/27 06:15:10;;;;;;;69.63;10.50;;;;;;;;;;5071758;28;20793;-69
2022/08/27 06:17:38;;;;;;;68.67;11.23;;;;;;;;;;5071672;28;20450;-70
2022/08/27 06:20:05;;;;;;;74.50;11.13;;;;;;;;;;5071479;28;20443;-70
2022/08/27 06:22:32;;;;;;;72.30;12.27;;;;;;;;;;5071615;28;20912;-70
2022/08/27 06:24:59;;;;;;;69.00;9.80;;;;;;;;;;5071547;28;20534;-69
2022/08/27 06:27:26;;;;;;;74.67;12.60;;;;;;;;;;5071753;28;20576;-69
2022/08/27 06:29:55;;;;;;;74.10;12.60;;;;;;;;;;5071235;28;20454;-70
2022/08/27 06:32:22;;;;;;;72.40;12.40;;;;;;;;;;5071342;28;20482;-69
2022/08/27 06:34:50;;;;;;;69.77;10.70;;;;;;;;;;5071820;28;20452;-69
2022/08/27 06:37:17;;;;;;;72.20;12.87;;;;;;;;;;5074811;28;20451;-70
2022/08/27 06:39:44;;;;;;;71.40;12.13;;;;;;;;;;5075478;28;20452;-69
2022/08/27 06:42:12;;;;;;;70.63;11.37;;;;;;;;;;5075827;28;20504;-69
2022/08/27 06:44:39;;;;;;;70.87;12.83;;;;;;;;;;5075412;28;20443;-70
2022/08/27 06:47:08;;;;;;;70.57;12.70;;;;;;;;;;5075432;28;20447;-69
2022/08/27 06:49:35;;;;;;;72.27;12.60;;;;;;;;;;5075540;28;20660;-70
2022/08/27 06:52:02;;;;;;;70.53;12.20;;;;;;;;;;5075669;28;20931;-70
2022/08/27 06:54:29;;;;;;;71.27;11.30;;;;;;;;;;5075314;28;20469;-70
2022/08/27 06:56:58;;;;;;;70.57;12.10;;;;;;;;;;5075354;28;20450;-69
2022/08/27 06:59:26;;;;;;;70.67;13.10;;;;;;;;;;5074618;28;20474;-70
2022/08/27 07:01:53;;;;;;;74.83;13.20;;;;;;;;;;5074900;28;20490;-69
2022/08/27 07:04:22;;;;;;;69.27;11.87;;;;;;;;;;5075150;28;20453;-69
2022/08/27 07:06:50;;;;;;;71.77;13.90;;;;;;;;;;5075009;28;20538;-69
2022/08/27 07:09:19;;;;;;;71.97;12.20;;;;;;;;;;5074636;28;20445;-70
2022/08/27 07:11:46;;;;;;;72.47;11.40;;;;;;;;;;5074751;28;20462;-70
2022/08/27 07:14:13;;;;;;;67.63;11.07;;;;;;;;;;5074984;28;20443;-70
2022/08/27 07:16:41;;;;;;;72.40;12.27;;;;;;;;;;5074958;28;20497;-69
2022/08/27 07:19:09;;;;;;;75.10;12.37;;;;;;;;;;5074415;28;20819;-69
2022/08/27 07:21:39;;;;;;;67.43;10.53;;;;;;;;;;5074600;28;20479;-70
2022/08/27 07:24:07;;;;;;;68.87;10.37;;;;;;;;;;5074665;28;20858;-70
2022/08/27 07:26:36;;;;;;;68.07;10.07;;;;;;;;;;5074597;28;20872;-69
2022/08/27 07:29:04;;;;;;;67.07;10.37;;;;;;;;;;5074422;28;20451;-69
2022/08/27 07:31:31;;;;;;;70.13;11.00;;;;;;;;;;5074786;28;20451;-70
2022/08/27 07:33:58;;;;;;;68.60;10.90;;;;;;;;;;5074547;28;20481;-69
2022/08/27 07:36:26;;;;;;;69.00;10.03;;;;;;;;;;5074591;28;20825;-69
2022/08/27 07:38:54;;;;;;;68.97;10.30;;;;;;;;;;5074357;28;20471;-70
2022/08/27 07:41:21;;;;;;;69.00;10.60;;;;;;;;;;5074195;28;20491;-69
2022/08/27 07:46:33;;;;;;;69.80;12.77;;;;;;;;;;5074254;28;20431;-70
2022/08/27 07:49:01;;;;;;;69.20;10.20;;;;;;;;;;5072700;28;20443;-70
2022/08/27 07:51:30;;;;;;;71.13;11.47;;;;;;;;;;5074071;28;20439;-69
2022/08/27 07:53:59;;;;;;;71.03;11.13;;;;;;;;;;5074002;28;20550;-70
2022/08/27 07:56:26;;;;;;;70.30;11.80;;;;;;;;;;5074475;28;20501;-70
2022/08/27 07:58:53;;;;;;;66.37;9.30;;;;;;;;;;5074061;28;20767;-70
2022/08/27 08:01:22;;;;;;;67.57;10.67;;;;;;;;;;5074114;28;20483;-70
2022/08/27 08:03:49;;;;;;;66.93;9.27;;;;;;;;;;5074295;28;20872;-70
2022/08/27 08:06:17;;;;;;;70.57;11.47;;;;;;;;;;5074880;28;20452;-72
2022/08/27 08:08:45;;;;;;;66.33;9.03;;;;;;;;;;5080542;28;20475;-70
2022/08/27 08:11:14;;;;;;;69.67;11.10;;;;;;;;;;5087937;28;20451;-69
2022/08/27 08:13:41;;;;;;;73.87;10.67;;;;;;;;;;5086110;28;20503;-71
2022/08/27 08:16:09;;;;;;;69.63;11.50;;;;;;;;;;5081947;28;20808;-71
2022/08/27 08:18:36;;;;;;;68.70;10.77;;;;;;;;;;5080528;28;20515;-72
2022/08/27 08:21:05;;;;;;;73.80;13.20;;;;;;;;;;5086765;28;20475;-71
2022/08/27 08:23:32;;;;;;;69.80;11.07;;;;;;;;;;5082493;28;20535;-70
2022/08/27 08:25:59;;;;;;;67.80;10.60;;;;;;;;;;5083552;28;20454;-70
2022/08/27 08:28:29;;;;;;;72.47;10.97;;;;;;;;;;5079982;28;20520;-69
2022/08/27 08:30:56;;;;;;;66.77;10.50;;;;;;;;;;5081308;28;20447;-71
2022/08/27 08:33:24;;;;;;;67.00;10.20;;;;;;;;;;5083670;28;20503;-71
2022/08/27 08:35:51;;;;;;;70.67;10.47;;;;;;;;;;5077998;28;20443;-71
2022/08/27 08:38:19;;;;;;;70.27;11.87;;;;;;;;;;5079727;28;20830;-69
2022/08/27 08:40:49;;;;;;;70.20;9.10;;;;;;;;;;5079291;28;20451;-70
2022/08/27 08:43:22;;;;;;;67.17;9.43;;;;;;;;;;5076411;28;20490;-71
2022/08/27 08:45:50;;;;;;;64.83;9.20;;;;;;;;;;5075831;28;20444;-71
2022/08/27 08:48:19;;;;;;;69.40;11.20;;;;;;;;;;5077818;28;20447;-71
2022/08/27 08:50:51;;;;;;;65.93;9.60;;;;;;;;;;5077158;28;20526;-71
2022/08/27 08:53:21;;;;;;;71.23;10.77;;;;;;;;;;5081843;28;20570;-72
2022/08/27 08:55:52;;;;;;;66.80;10.03;;;;;;;;;;5078944;28;20489;-71
2022/08/27 08:58:22;;;;;;;67.03;8.87;;;;;;;;;;5075954;28;20506;-71
2022/08/27 09:00:53;;;;;;;67.17;9.50;;;;;;;;;;5075048;28;20447;-71
2022/08/27 09:03:20;;;;;;;65.77;8.77;;;;;;;;;;5075262;28;20494;-71
2022/08/27 09:05:49;;;;;;;67.80;9.70;;;;;;;;;;5073944;28;20943;-71
2022/08/27 09:08:18;;;;;;;69.67;9.40;;;;;;;;;;5076115;28;20453;-71
2022/08/27 09:10:48;;;;;;;68.30;12.17;;;;;;;;;;5077527;28;20458;-69
2022/08/27 09:13:21;;;;;;;67.60;10.00;;;;;;;;;;5077361;28;20486;-69
2022/08/27 09:15:48;;;;;;;73.67;10.13;;;;;;;;;;5078951;28;21042;-70
2022/08/27 09:18:17;;;;;;;69.60;11.00;;;;;;;;;;5079993;28;20559;-70
2022/08/27 09:20:48;;;;;;;66.83;8.93;;;;;;;;;;5079289;28;20534;-70
2022/08/27 09:23:19;;;;;;;65.87;9.80;;;;;;;;;;5077441;28;20483;-71
2022/08/27 09:25:46;;;;;;;67.73;10.37;;;;;;;;;;5075433;28;20989;-71
2022/08/27 09:31:00;;;;;;;66.00;9.07;;;;;;;;;;5075678;28;20439;-70
2022/08/27 09:33:28;;;;;;;65.00;8.97;;;;;;;;;;5074774;28;20467;-71
2022/08/27 09:35:55;;;;;;;66.33;9.47;;;;;;;;;;5074722;28;20446;-71
2022/08/27 09:38:27;;;;;;;65.90;8.73;;;;;;;;;;5079162;28;20444;-71
2022/08/27 09:40:54;;;;;;;67.43;10.00;;;;;;;;;;5081811;28;20445;-71
2022/08/27 09:43:22;;;;;;;68.97;10.07;;;;;;;;;;5078379;28;20530;-71
2022/08/27 09:45:50;;;;;;;67.40;9.57;;;;;;;;;;5078294;28;20447;-71
2022/08/27 09:48:19;;;;;;;64.60;8.53;;;;;;;;;;5077856;28;20797;-71
2022/08/27 09:50:49;;;;;;;70.33;11.60;;;;;;;;;;5078141;28;20478;-71
2022/08/27 09:53:19;;;;;;;65.57;9.50;;;;;;;;;;5079152;28;20535;-70
2022/08/27 09:55:48;;;;;;;67.93;10.33;;;;;;;;;;5076429;28;20474;-71
2022/08/27 09:58:18;;;;;;;65.10;8.43;;;;;;;;;;5078004;28;20582;-71
2022/08/27 10:00:46;;;;;;;66.37;9.33;;;;;;;;;;5074584;28;20918;-71
2022/08/27 10:03:14;;;;;;;71.10;10.37;;;;;;;;;;5074720;28;21060;-71
2022/08/27 10:05:44;;;;;;;69.07;10.30;;;;;;;;;;5076370;28;20947;-71
2022/08/27 10:08:18;;;;;;;68.20;9.93;;;;;;;;;;5077450;28;20446;-69
2022/08/27 10:10:50;;;;;;;67.13;9.70;;;;;;;;;;5074228;28;20935;-71
2022/08/27 10:13:18;;;;;;;65.37;8.33;;;;;;;;;;5074679;28;21029;-70
2022/08/27 10:15:52;;;;;;;65.90;9.43;;;;;;;;;;5074592;28;20834;-71
2022/08/27 10:18:23;;;;;;;69.30;11.03;;;;;;;;;;5074412;28;20918;-72
2022/08/27 10:20:59;;;;;;;67.47;8.60;;;;;;;;;;5074010;28;20967;-72
2022/08/27 10:23:34;;;;;;;71.57;11.67;;;;;;;;;;5074113;28;20483;-71
2022/08/27 10:26:06;;;;;;;66.67;9.13;;;;;;;;;;5074814;28;20815;-70
2022/08/27 10:28:40;;;;;;;68.57;10.70;;;;;;;;;;5076352;28;21204;-68
2022/08/27 10:31:16;;;;;;;68.07;9.87;;;;;;;;;;5074832;28;20466;-71
2022/08/27 10:33:48;;;;;;;68.70;10.87;;;;;;;;;;5073745;28;20479;-71
2022/08/27 10:36:19;;;;;;;66.40;10.20;;;;;;;;;;5074883;28;20545;-71
2022/08/27 10:38:50;;;;;;;70.73;12.33;;;;;;;;;;5074069;28;20451;-71
2022/08/27 10:41:18;;;;;;;71.87;11.90;;;;;;;;;;5074675;28;20447;-72
2022/08/27 10:43:54;;;;;;;65.93;8.80;;;;;;;;;;5073875;28;20507;-69
2022/08/27 10:46:31;;;;;;;65.70;9.50;;;;;;;;;;5073801;28;20443;-72
2022/08/27 10:49:00;;;;;;;64.67;8.97;;;;;;;;;;5073593;28;20482;-71
2022/08/27 10:51:31;;;;;;;69.00;10.97;;;;;;;;;;5074350;28;20539;-71
2022/08/27 10:54:04;;;;;;;66.67;9.13;;;;;;;;;;5075137;28;20450;-71
2022/08/27 10:56:33;;;;;;;65.57;9.23;;;;;;;;;;5075302;28;20447;-71
2022/08/27 10:59:06;;;;;;;66.83;9.77;;;;;;;;;;5075986;28;20446;-72
2022/08/27 11:01:37;;;;;;;65.70;8.93;;;;;;;;;;5076962;28;20538;-71
2022/08/27 11:04:07;;;;;;;69.20;9.10;;;;;;;;;;5074751;28;20486;-71
2022/08/27 11:06:36;;;;;;;68.30;9.40;;;;;;;;;;5072900;28;20530;-70
2022/08/27 11:09:07;;;;;;;70.67;11.03;;;;;;;;;;5072807;28;20447;-71
2022/08/27 11:11:37;;;;;;;69.37;11.17;;;;;;;;;;5073648;28;20526;-70
2022/08/27 11:14:08;;;;;;;66.20;8.70;;;;;;;;;;5073661;28;20837;-70
2022/08/27 11:16:37;;;;;;;67.27;11.07;;;;;;;;;;5073893;28;20530;-71
2022/08/27 11:19:10;;;;;;;66.37;9.73;;;;;;;;;;5071755;28;20974;-71
2022/08/27 11:21:40;;;;;;;67.70;10.47;;;;;;;;;;5073739;28;20447;-70
2022/08/27 11:24:15;;;;;;;71.60;10.33;;;;;;;;;;5079236;28;20585;-71
2022/08/27 11:26:42;;;;;;;68.70;9.93;;;;;;;;;;5077981;28;20940;-71
2022/08/27 11:29:14;;;;;;;67.90;10.70;;;;;;;;;;5075670;28;20534;-72
2022/08/27 11:31:45;;;;;;;65.77;8.43;;;;;;;;;;5077333;28;20815;-70
2022/08/27 11:34:15;;;;;;;67.27;10.10;;;;;;;;;;5076989;28;20443;-71
2022/08/27 11:37:01;;;;;;;67.57;9.60;;;;;;;;;;5076950;28;20928;-71
2022/08/27 11:39:37;;;;;;;65.93;9.50;;;;;;;;;;5075520;28;20827;-71
2022/08/27 11:42:09;;;;;;;68.07;11.07;;;;;;;;;;5075933;28;20463;-71
2022/08/27 11:44:41;;;;;;;69.00;9.47;;;;;;;;;;5076038;28;20453;-71
2022/08/27 11:47:10;;;;;;;69.20;11.93;;;;;;;;;;5075586;28;20483;-71
2022/08/27 11:49:41;;;;;;;67.60;10.67;;;;;;;;;;5075895;28;20439;-71
2022/08/27 11:52:09;;;;;;;68.27;11.23;;;;;;;;;;5076734;28;20467;-71
2022/08/27 11:54:46;;;;;;;69.70;10.27;;;;;;;;;;5076944;28;20453;-70
2022/08/27 11:57:17;;;;;;;67.00;12.27;;;;;;;;;;5077149;28;20455;-71
2022/08/27 11:59:44;;;;;;;69.10;10.43;;;;;;;;;;5080149;28;21016;-70
2022/08/27 12:02:24;;;;;;;66.67;9.97;;;;;;;;;;5081267;28;20554;-71
2022/08/27 12:04:54;;;;;;;64.97;9.10;;;;;;;;;;5081361;28;20475;-70
2022/08/27 12:07:28;;;;;;;68.67;11.23;;;;;;;;;;5080583;28;20447;-71
2022/08/27 12:10:04;;;;;;;68.13;10.20;;;;;;;;;;5080510;28;20965;-71
2022/08/27 12:12:34;;;;;;;67.43;10.53;;;;;;;;;;5079081;28;20836;-71
2022/08/27 12:15:04;;;;;;;68.57;9.40;;;;;;;;;;5079424;28;20445;-70
2022/08/27 12:17:35;;;;;;;66.87;11.20;;;;;;;;;;5082062;28;20447;-71
2022/08/27 12:20:08;;;;;;;69.50;11.53;;;;;;;;;;5083504;28;20432;-71
2022/08/27 12:25:36;;;;;;;67.57;11.60;;;;;;;;;;5080717;28;20430;-71
2022/08/27 12:28:05;;;;;;;67.90;10.70;;;;;;;;;;5077678;28;20446;-71
2022/08/27 12:30:33;;;;;;;70.30;12.50;;;;;;;;;;5079366;28;20448;-70
2022/08/27 12:33:09;;;;;;;72.17;12.43;;;;;;;;;;5084165;28;20562;-69
2022/08/27 12:35:42;;;;;;;68.47;11.43;;;;;;;;;;5078657;28;21029;-68
2022/08/27 12:38:12;;;;;;;71.27;12.50;;;;;;;;;;5084665;28;20447;-71
2022/08/27 12:40:42;;;;;;;70.83;10.87;;;;;;;;;;5084036;28;20445;-71
2022/08/27 12:43:11;;;;;;;68.97;10.53;;;;;;;;;;5084332;28;20538;-71
2022/08/27 12:45:43;;;;;;;68.87;10.93;;;;;;;;;;5085148;28;20450;-71
2022/08/27 12:48:10;;;;;;;70.80;11.57;;;;;;;;;;5084228;28;20605;-71
2022/08/27 12:50:38;;;;;;;71.70;11.70;;;;;;;;;;5084003;28;20453;-71
2022/08/27 12:53:11;;;;;;;69.27;10.80;;;;;;;;;;5084861;28;20463;-68
2022/08/27 12:55:48;;;;;;;67.00;9.83;;;;;;;;;;5085414;28;20474;-69
2022/08/27 12:58:19;;;;;;;70.90;12.57;;;;;;;;;;5084727;28;20461;-68
2022/08/27 13:01:11;;;;;;;69.60;11.00;;;;;;;;;;5081961;28;20527;-68
2022/08/27 13:03:40;;;;;;;68.70;10.87;;;;;;;;;;5077183;28;20491;-68
2022/08/27 13:06:15;;;;;;;73.23;14.13;;;;;;;;;;5077958;28;20452;-69
2022/08/27 13:08:42;;;;;;;72.47;13.47;;;;;;;;;;5079127;28;20534;-69
2022/08/27 13:11:12;;;;;;;78.03;11.13;;;;;;;;;;5081023;28;20523;-69
2022/08/27 13:13:39;;;;;;;68.73;10.77;;;;;;;;;;5082820;28;20459;-68
2022/08/27 13:16:06;;;;;;;68.30;11.07;;;;;;;;;;5081093;28;21018;-69
2022/08/27 13:18:34;;;;;;;73.40;11.63;;;;;;;;;;5076127;28;20458;-67
2022/08/27 13:21:02;;;;;;;67.17;9.73;;;;;;;;;;5076323;28;20534;-69
2022/08/27 13:23:29;;;;;;;65.87;9.97;;;;;;;;;;5082161;28;20581;-69
2022/08/27 13:25:59;;;;;;;64.67;9.40;;;;;;;;;;5080682;28;20832;-70
2022/08/27 13:28:29;;;;;;;65.73;9.33;;;;;;;;;;5083072;28;20449;-68
2022/08/27 13:30:56;;;;;;;65.80;9.10;;;;;;;;;;5080277;28;20450;-69
2022/08/27 13:33:26;;;;;;;69.67;10.33;;;;;;;;;;5084197;28;20471;-69
2022/08/27 13:35:55;;;;;;;66.47;9.00;;;;;;;;;;5083985;28;20835;-69
2022/08/27 13:38:24;;;;;;;66.57;11.23;;;;;;;;;;5083472;28;20456;-69
2022/08/27 13:40:53;;;;;;;69.27;10.97;;;;;;;;;;5084462;28;20455;-69
2022/08/27 13:43:22;;;;;;;67.00;10.27;;;;;;;;;;5085403;28;20551;-69
2022/08/27 13:45:53;;;;;;;65.67;9.50;;;;;;;;;;5084750;28;20534;-69
2022/08/27 13:48:21;;;;;;;66.67;9.87;;;;;;;;;;5086110;28;20455;-68
2022/08/27 13:50:50;;;;;;;65.07;9.80;;;;;;;;;;5080940;28;20451;-68
2022/08/27 13:56:04;;;;;;;63.13;8.50;;;;;;;;;;5085492;28;20447;-68
2022/08/27 13:58:33;;;;;;;67.70;9.90;;;;;;;;;;5082974;28;20528;-69
2022/08/27 14:01:09;;;;;;;71.37;11.13;;;;;;;;;;5081480;28;20446;-69
2022/08/27 14:03:38;;;;;;;68.57;10.27;;;;;;;;;;5080565;28;20536;-68
2022/08/27 14:06:05;;;;;;;66.10;11.30;;;;;;;;;;5081653;28;20944;-69
2022/08/27 14:08:34;;;;;;;65.20;8.73;;;;;;;;;;5082709;28;20531;-69
2022/08/27 14:11:03;;;;;;;67.70;9.97;;;;;;;;;;5082255;28;20455;-69
2022/08/27 14:13:38;;;;;;;66.50;8.60;;;;;;;;;;5084040;28;20550;-69
2022/08/27 14:16:14;;;;;;;65.20;9.10;;;;;;;;;;5084493;28;20974;-68
2022/08/27 14:18:51;;;;;;;65.50;9.47;;;;;;;;;;5081259;28;20490;-68
2022/08/27 14:21:18;;;;;;;69.70;10.00;;;;;;;;;;5083360;28;20533;-68
2022/08/27 14:23:45;;;;;;;65.13;8.60;;;;;;;;;;5086924;28;20518;-68
2022/08/27 14:26:13;;;;;;;68.27;9.57;;;;;;;;;;5087466;28;20479;-69
2022/08/27 14:28:41;;;;;;;65.27;9.90;;;;;;;;;;5084211;28;20479;-69
2022/08/27 14:31:08;;;;;;;68.67;10.70;;;;;;;;;;5084132;28;20451;-69
2022/08/27 14:33:35;;;;;;;67.37;10.27;;;;;;;;;;5087048;28;20484;-67
2022/08/27 14:36:04;;;;;;;71.73;10.73;;;;;;;;;;5086155;28;20457;-70
2022/08/27 14:38:32;;;;;;;66.20;9.40;;;;;;;;;;5083818;28;20530;-68
2022/08/27 14:40:59;;;;;;;68.33;10.43;;;;;;;;;;5082467;28;20459;-69
2022/08/27 14:43:26;;;;;;;63.97;8.07;;;;;;;;;;5082168;28;20930;-70
2022/08/27 14:45:54;;;;;;;66.50;10.70;;;;;;;;;;5081370;28;20448;-69
2022/08/27 14:48:22;;;;;;;66.10;10.27;;;;;;;;;;5079067;28;20542;-70
2022/08/27 14:50:49;;;;;;;68.20;11.67;;;;;;;;;;5079533;28;20539;-70
2022/08/27 14:53:18;;;;;;;65.77;10.27;;;;;;;;;;5078031;28;20546;-70